createdAt,value
2022-12-04T00:00:53.413Z,92.1
2022-12-04T00:02:55.357Z,114.1
2022-12-04T00:04:57.198Z,87.6
2022-12-04T00:07:02.293Z,106.5
2022-12-04T00:09:04.172Z,106
2022-12-04T00:13:07.939Z,113.5
2022-12-04T00:15:25.178Z,99.6
2022-12-04T00:17:11.716Z,101
2022-12-04T00:19:13.555Z,111.3
2022-12-04T00:21:18.688Z,96
2022-12-04T00:25:22.460Z,119.5
2022-12-04T00:26:25.050Z,110.4
2022-12-04T00:28:26.928Z,111
2022-12-04T00:30:28.802Z,104.8
2022-12-04T00:34:35.825Z,101.6
2022-12-04T00:36:37.706Z,108.4
2022-12-04T00:38:39.602Z,109.8
2022-12-04T00:40:41.461Z,111.2
2022-12-04T00:42:43.338Z,106.7
2022-12-04T00:44:45.249Z,101
2022-12-04T00:46:47.145Z,100.6
2022-12-04T00:48:52.247Z,101.7
2022-12-04T00:50:54.176Z,108.6
2022-12-04T00:52:56.035Z,107.1
2022-12-04T00:54:57.914Z,107
2022-12-04T01:03:08.799Z,98.8
2022-12-04T01:05:10.612Z,108.6
2022-12-04T01:07:12.476Z,104
2022-12-04T01:13:18.094Z,109.9
2022-12-04T01:15:19.977Z,102.9
2022-12-04T01:21:28.902Z,110.6
2022-12-04T01:22:31.444Z,104.4
2022-12-04T01:28:37.071Z,105.9
2022-12-04T01:30:42.214Z,104.7
2022-12-04T01:32:44.075Z,109.2
2022-12-04T01:34:45.977Z,104.4
2022-12-04T01:36:47.847Z,92.9
2022-12-04T01:38:49.753Z,103.6
2022-12-04T01:40:51.630Z,111.7
2022-12-04T01:42:53.511Z,107.1
2022-12-04T01:44:58.801Z,102.1
2022-12-04T01:47:00.528Z,102.6
2022-12-04T01:49:02.417Z,117.6
2022-12-04T01:53:06.158Z,96.4
2022-12-04T01:55:08.051Z,103.4
2022-12-04T01:59:15.058Z,111.9
2022-12-04T02:01:16.980Z,107.2
2022-12-04T02:03:18.838Z,106.4
2022-12-04T02:05:20.756Z,106.9
2022-12-04T02:09:26.882Z,104.8
2022-12-04T02:13:33.085Z,111.2
2022-12-04T02:15:34.936Z,97.9
2022-12-04T02:20:05.679Z,99
2022-12-04T02:24:09.477Z,103.1
2022-12-04T02:28:16.508Z,113.2
2022-12-04T02:32:20.290Z,101.8
2022-12-04T02:34:22.176Z,111.7
2022-12-04T02:36:24.063Z,105.2
2022-12-04T02:38:25.935Z,101.6
2022-12-04T02:40:31.048Z,108.7
2022-12-04T02:42:32.947Z,98.3
2022-12-04T02:44:34.843Z,97.4
2022-12-04T02:46:36.749Z,98.3
2022-12-04T02:48:38.612Z,92.4
2022-12-04T02:50:40.515Z,109.4
2022-12-04T02:52:42.381Z,108.4
2022-12-04T02:54:47.515Z,104
2022-12-04T02:56:49.395Z,105.1
2022-12-04T02:58:51.300Z,110.8
2022-12-04T03:00:53.258Z,106.9
2022-12-04T03:02:55.111Z,104.8
2022-12-04T03:04:56.951Z,102.7
2022-12-04T03:06:58.845Z,108.1
2022-12-04T03:09:03.970Z,106.6
2022-12-04T03:11:05.846Z,104.6
2022-12-04T03:13:07.742Z,113
2022-12-04T03:14:10.332Z,106.5
2022-12-04T03:16:12.208Z,112.6
2022-12-04T03:18:14.139Z,102.9
2022-12-04T03:20:15.973Z,115.4
2022-12-04T03:22:21.107Z,107.6
2022-12-04T03:24:23.012Z,116.1
2022-12-04T03:26:24.892Z,111.7
2022-12-04T03:28:26.758Z,105.5
2022-12-04T03:30:28.713Z,124.4
2022-12-04T03:32:30.626Z,107.7
2022-12-04T03:34:32.407Z,114.2
2022-12-04T03:36:37.528Z,115.4
2022-12-04T03:38:39.414Z,103.9
2022-12-04T03:40:41.277Z,113.1
2022-12-04T03:42:43.170Z,123.2
2022-12-04T03:44:45.071Z,110.4
2022-12-04T03:46:46.920Z,120.7
2022-12-04T03:48:48.807Z,127.2
2022-12-04T03:50:53.911Z,113.1
2022-12-04T03:52:55.798Z,114.9
2022-12-04T03:54:57.695Z,115.4
2022-12-04T03:56:59.607Z,118.1
2022-12-04T03:59:01.469Z,129.7
2022-12-04T04:01:03.517Z,112.3
2022-12-04T04:03:05.420Z,121.1
2022-12-04T04:05:10.366Z,106.2
2022-12-04T04:07:12.245Z,110.4
2022-12-04T04:09:14.110Z,94.3
2022-12-04T04:10:16.684Z,107.1
2022-12-04T04:12:18.565Z,112.1
2022-12-04T04:14:20.436Z,102.4
2022-12-04T04:16:22.433Z,118.7
2022-12-04T04:18:27.475Z,115.5
2022-12-04T04:20:29.320Z,105.6
2022-12-04T04:22:31.205Z,107.6
2022-12-04T04:24:33.104Z,108.1
2022-12-04T04:26:34.984Z,113.5
2022-12-04T04:28:36.870Z,131.9
2022-12-04T04:30:38.892Z,116.5
2022-12-04T04:32:43.850Z,109.4
2022-12-04T04:34:45.751Z,115
2022-12-04T04:38:49.513Z,110.7
2022-12-04T04:40:51.389Z,125.3
2022-12-04T04:42:53.264Z,135.9
2022-12-04T04:44:55.142Z,94.8
2022-12-04T04:47:00.253Z,121.8
2022-12-04T04:49:02.174Z,110.4
2022-12-04T04:51:04.000Z,106
2022-12-04T04:53:05.910Z,112.1
2022-12-04T04:55:07.787Z,106.4
2022-12-04T04:57:09.706Z,114.9
2022-12-04T04:59:11.528Z,108.4
2022-12-04T05:01:16.665Z,101.6
2022-12-04T05:03:18.564Z,124.9
2022-12-04T05:05:20.423Z,109.7
2022-12-04T05:06:22.976Z,110.4
2022-12-04T05:08:24.870Z,107.4
2022-12-04T05:10:26.718Z,103.8
2022-12-04T05:12:28.612Z,100.8
2022-12-04T05:14:33.727Z,101
2022-12-04T05:16:35.767Z,115.9
2022-12-04T05:20:39.398Z,106.4
2022-12-04T05:22:41.294Z,101.7
2022-12-04T05:24:43.153Z,106.9
2022-12-04T05:26:45.053Z,100
2022-12-04T05:28:50.206Z,91.8
2022-12-04T05:30:52.085Z,94.5
2022-12-04T05:32:53.964Z,92.8
2022-12-04T05:34:55.837Z,114.5
2022-12-04T05:36:57.710Z,106.2
2022-12-04T05:38:59.585Z,103.3
2022-12-04T05:41:01.455Z,106.3
2022-12-04T05:43:06.597Z,104.5
2022-12-04T05:45:08.515Z,102.1
2022-12-04T05:47:10.457Z,121.6
2022-12-04T05:49:12.250Z,113.1
2022-12-04T05:51:14.104Z,106.7
2022-12-04T05:53:16.003Z,117
2022-12-04T05:55:17.886Z,108.4
2022-12-04T05:57:25.427Z,100.4
2022-12-04T05:59:24.876Z,117
2022-12-04T06:01:26.756Z,91.7
2022-12-04T06:03:55.659Z,121.3
2022-12-04T06:05:57.665Z,102.2
2022-12-04T06:07:59.460Z,103
2022-12-04T06:10:04.556Z,107.3
2022-12-04T06:12:06.389Z,105.6
2022-12-04T06:16:10.266Z,112.3
2022-12-04T06:18:12.012Z,126.9
2022-12-04T06:20:14.033Z,108.4
2022-12-04T06:22:15.845Z,106.7
2022-12-04T06:24:20.971Z,107.5
2022-12-04T06:26:22.844Z,106.6
2022-12-04T06:28:24.730Z,111.2
2022-12-04T06:30:26.653Z,104.9
2022-12-04T06:34:30.443Z,113.1
2022-12-04T06:36:32.317Z,114.7
2022-12-04T06:38:37.407Z,98.2
2022-12-04T06:40:39.315Z,117.4
2022-12-04T06:42:41.193Z,108.5
2022-12-04T06:44:43.101Z,125.3
2022-12-04T06:46:47.069Z,114.9
2022-12-04T06:50:48.744Z,97.8
2022-12-04T06:52:53.886Z,102.2
2022-12-04T06:54:55.784Z,121.2
2022-12-04T06:56:57.681Z,120.9
2022-12-04T06:58:00.257Z,124.1
2022-12-04T07:02:04.075Z,111.2
2022-12-04T07:04:05.906Z,117.3
2022-12-04T07:06:11.027Z,99.6
2022-12-04T07:08:13.057Z,118.9
2022-12-04T07:10:14.802Z,96.5
2022-12-04T07:12:16.724Z,115.8
2022-12-04T07:14:18.612Z,108.2
2022-12-04T07:16:20.582Z,103.2
2022-12-04T07:18:22.342Z,133.4
2022-12-04T07:20:27.483Z,108.2
2022-12-04T07:22:29.373Z,114.3
2022-12-04T07:24:31.281Z,106.6
2022-12-04T07:26:33.232Z,111.9
2022-12-04T07:28:35.008Z,97.7
2022-12-04T07:30:36.912Z,112
2022-12-04T07:32:38.799Z,108.5
2022-12-04T07:34:43.936Z,123.4
2022-12-04T07:36:45.841Z,103.7
2022-12-04T07:38:47.691Z,97.6
2022-12-04T07:40:49.583Z,113.2
2022-12-04T07:42:51.474Z,122.9
2022-12-04T07:44:53.333Z,103.4
2022-12-04T07:46:55.213Z,118.6
2022-12-04T07:49:00.347Z,116.1
2022-12-04T07:51:02.250Z,117
2022-12-04T07:53:04.186Z,110.1
2022-12-04T07:58:10.427Z,129
2022-12-04T08:04:20.910Z,130.1
2022-12-04T08:08:24.596Z,130.2
2022-12-04T08:10:26.501Z,116.3
2022-12-04T08:12:28.384Z,115.3
2022-12-04T08:14:30.262Z,103.2
2022-12-04T08:16:35.371Z,112.7
2022-12-04T08:18:37.223Z,121.1
2022-12-04T08:20:39.164Z,115.4
2022-12-04T08:22:41.007Z,108.1
2022-12-04T08:24:42.854Z,118.8
2022-12-04T08:26:44.750Z,122.9
2022-12-04T08:28:46.632Z,106.8
2022-12-04T08:30:51.816Z,119.8
2022-12-04T08:32:53.612Z,127.9
2022-12-04T08:34:56.012Z,132.6
2022-12-04T08:36:57.358Z,111.5
2022-12-04T08:38:59.241Z,104.9
2022-12-04T08:41:01.149Z,117.2
2022-12-04T08:43:03.041Z,96.3
2022-12-04T08:45:08.144Z,103.7
2022-12-04T08:47:09.986Z,118.8
2022-12-04T08:49:11.871Z,109.2
2022-12-04T08:50:14.411Z,100.5
2022-12-04T08:52:16.288Z,108.4
2022-12-04T08:54:18.165Z,115.5
2022-12-04T08:56:20.034Z,115.5
2022-12-04T08:58:25.204Z,101.1
2022-12-04T09:00:27.106Z,94.9
2022-12-04T09:02:28.963Z,91.7
2022-12-04T09:04:30.930Z,82.4
2022-12-04T09:06:32.700Z,103.9
2022-12-04T09:08:34.624Z,91.4
2022-12-04T09:10:36.458Z,95.2
2022-12-04T09:12:41.606Z,90.3
2022-12-04T09:14:43.480Z,86.4
2022-12-04T09:23:02.976Z,100
2022-12-04T09:24:52.912Z,81.6
2022-12-04T09:26:58.016Z,80.7
2022-12-04T09:28:59.918Z,67.3
2022-12-04T09:31:01.953Z,63.5
2022-12-04T09:33:03.689Z,69
2022-12-04T09:35:05.563Z,81.7
2022-12-04T09:41:14.492Z,58.8
2022-12-04T09:43:16.340Z,84.5
2022-12-04T09:47:47.030Z,65
2022-12-04T09:49:48.908Z,58.6
2022-12-04T09:51:50.784Z,78.1
2022-12-04T09:53:55.932Z,62.4
2022-12-04T09:55:57.827Z,67
2022-12-04T09:58:02.096Z,59.3
2022-12-04T10:00:01.619Z,49.1
2022-12-04T10:02:03.603Z,56
2022-12-04T10:04:06.575Z,61.3
2022-12-04T10:06:07.289Z,45.8
2022-12-04T10:08:12.451Z,58.7
2022-12-04T10:12:16.186Z,51.6
2022-12-04T10:14:18.082Z,58.1
2022-12-04T10:16:20.067Z,53.1
2022-12-04T10:18:21.873Z,46.8
2022-12-04T10:20:23.748Z,51.1
2022-12-04T10:24:30.788Z,47.7
2022-12-04T10:26:32.719Z,57.8
2022-12-04T10:28:34.562Z,52.5
2022-12-04T10:34:45.403Z,48.4
2022-12-04T10:36:45.415Z,47.9
2022-12-04T10:40:49.200Z,41.1
2022-12-04T10:41:51.755Z,41.9
2022-12-04T10:43:53.659Z,30.9
2022-12-04T10:45:55.570Z,45.1
2022-12-04T10:50:02.616Z,46.1
2022-12-04T10:52:04.523Z,33.5
2022-12-04T10:54:06.415Z,43.6
2022-12-04T10:56:08.319Z,44.1
2022-12-04T10:58:10.251Z,45.7
2022-12-04T11:00:12.113Z,41.1
2022-12-04T11:02:14.080Z,40.9
2022-12-04T11:06:21.067Z,39.6
2022-12-04T11:08:23.016Z,35.6
2022-12-04T11:10:24.859Z,46
2022-12-04T11:16:30.632Z,45.7
2022-12-04T11:18:35.720Z,43.7
2022-12-04T11:30:47.154Z,41.9
2022-12-04T11:32:52.284Z,38.9
2022-12-04T11:40:00.548Z,38.2
2022-12-04T11:42:02.474Z,37.6
2022-12-04T11:48:11.457Z,31.3
2022-12-04T11:50:13.335Z,39.1
2022-12-04T11:52:15.268Z,35.2
2022-12-04T11:58:20.957Z,39.6
2022-12-04T12:02:28.150Z,37.6
2022-12-04T12:04:29.918Z,32.6
2022-12-04T12:06:31.825Z,40.3
2022-12-04T12:08:33.754Z,38.3
2022-12-04T12:10:38.881Z,35.8
2022-12-04T12:12:37.614Z,44
2022-12-04T12:14:42.702Z,50.9
2022-12-04T12:16:48.386Z,42.7
2022-12-04T12:18:46.529Z,51
2022-12-04T12:20:48.448Z,37.5
2022-12-04T12:22:50.364Z,41.8
2022-12-04T12:24:52.270Z,48.9
2022-12-04T12:26:54.187Z,46.4
2022-12-04T12:28:59.319Z,46.3
2022-12-04T12:31:05.596Z,36.9
2022-12-04T12:33:03.188Z,43.9
2022-12-04T12:34:05.766Z,41.2
2022-12-04T12:38:09.608Z,38
2022-12-04T12:40:11.527Z,46.2
2022-12-04T12:42:16.710Z,45.2
2022-12-04T12:44:18.615Z,48.3
2022-12-04T12:46:20.616Z,39.7
2022-12-04T12:48:22.440Z,42.3
2022-12-04T12:52:26.290Z,41.9
2022-12-04T12:54:28.200Z,47.5
2022-12-04T12:56:33.341Z,50
2022-12-04T12:58:35.268Z,49.8
2022-12-04T13:00:37.194Z,46.6
2022-12-04T13:02:39.182Z,49.3
2022-12-04T13:04:41.046Z,57.8
2022-12-04T13:08:46.355Z,43
2022-12-04T13:10:50.016Z,62.8
2022-12-04T13:14:53.861Z,50.3
2022-12-04T13:16:55.816Z,61.1
2022-12-04T13:20:59.580Z,59.1
2022-12-04T13:23:01.507Z,68.7
2022-12-04T13:25:06.688Z,68
2022-12-04T13:29:10.483Z,61
2022-12-04T13:31:39.353Z,67.9
2022-12-04T13:33:41.227Z,79.4
2022-12-04T13:35:43.134Z,86.9
2022-12-04T13:37:48.292Z,77.5
2022-12-04T13:39:50.213Z,66.9
2022-12-04T13:41:52.128Z,71.2
2022-12-04T13:43:54.044Z,70.9
2022-12-04T13:45:56.006Z,70.8
2022-12-04T13:47:57.868Z,82.2
2022-12-04T13:50:04.968Z,89.7
2022-12-04T13:52:04.945Z,69.8
2022-12-04T13:54:08.515Z,81.7
2022-12-04T13:56:13.539Z,81.1
2022-12-04T13:58:12.208Z,68.1
2022-12-04T14:00:14.123Z,88.8
2022-12-04T14:02:16.066Z,62.6
2022-12-04T14:04:17.942Z,71.9
2022-12-04T14:06:23.095Z,75.8
2022-12-04T14:08:25.256Z,73.2
2022-12-04T14:10:26.952Z,84.1
2022-12-04T14:12:28.829Z,79
2022-12-04T14:14:30.777Z,75.8
2022-12-04T14:16:32.710Z,85.8
2022-12-04T14:18:34.596Z,69.1
2022-12-04T14:20:39.749Z,71.3
2022-12-04T14:22:41.648Z,81.2
2022-12-04T14:24:43.590Z,87.1
2022-12-04T14:25:46.129Z,76.7
2022-12-04T14:27:48.059Z,90.4
2022-12-04T14:29:49.983Z,79.2
2022-12-04T14:31:51.899Z,80.8
2022-12-04T14:35:58.966Z,70.8
2022-12-04T14:38:00.891Z,78.3
2022-12-04T14:40:02.812Z,60.2
2022-12-04T14:42:04.709Z,74.2
2022-12-04T14:46:08.538Z,72.4
2022-12-04T14:48:13.675Z,84
2022-12-04T14:50:15.594Z,77.1
2022-12-04T14:58:23.258Z,71.1
2022-12-04T15:00:25.169Z,67
2022-12-04T15:02:30.325Z,81
2022-12-04T15:04:32.338Z,60.3
2022-12-04T15:06:34.190Z,65.1
2022-12-04T15:08:36.124Z,65.9
2022-12-04T15:10:38.015Z,67.8
2022-12-04T15:16:46.994Z,73.8
2022-12-04T15:18:48.912Z,70.8
2022-12-04T15:20:50.802Z,71.1
2022-12-04T15:21:53.371Z,64.1
2022-12-04T15:23:55.303Z,74.3
2022-12-04T15:25:57.229Z,65.1
2022-12-04T15:27:59.144Z,72.8
2022-12-04T15:30:04.370Z,71.2
2022-12-04T15:32:06.218Z,70.8
2022-12-04T15:34:08.137Z,68.9
2022-12-04T15:36:10.095Z,61.4
2022-12-04T15:38:11.986Z,70.1
2022-12-04T15:40:13.913Z,78.9
2022-12-04T15:42:15.816Z,74.9
2022-12-04T15:44:20.965Z,80.6
2022-12-04T15:48:24.827Z,74.1
2022-12-04T15:50:26.757Z,67.9
2022-12-04T15:52:28.667Z,69.4
2022-12-04T15:54:30.567Z,67
2022-12-04T15:56:32.496Z,73.7
2022-12-04T15:58:37.690Z,70.2
2022-12-04T16:00:39.580Z,69.4
2022-12-04T16:02:41.683Z,64.2
2022-12-04T16:04:45.597Z,64.4
2022-12-04T16:06:45.405Z,62.2
2022-12-04T16:08:47.346Z,67.5
2022-12-04T16:10:49.270Z,62
2022-12-04T16:12:54.524Z,72.7
2022-12-04T16:14:56.645Z,72
2022-12-04T16:17:02.570Z,61.5
2022-12-04T16:18:00.936Z,62.7
2022-12-04T16:20:02.827Z,73
2022-12-04T16:22:04.781Z,63.1
2022-12-04T16:24:06.728Z,68.3
2022-12-04T16:26:11.921Z,78.3
2022-12-04T16:28:14.030Z,76
2022-12-04T16:30:15.813Z,59
2022-12-04T16:32:17.761Z,59.4
2022-12-04T16:34:19.701Z,56
2022-12-04T16:36:21.674Z,50.8
2022-12-04T16:38:23.615Z,63.3
2022-12-04T16:40:28.788Z,49.4
2022-12-04T16:42:30.736Z,57.9
2022-12-04T16:44:32.670Z,56
2022-12-04T16:46:34.744Z,60.9
2022-12-04T16:48:36.723Z,50.4
2022-12-04T16:50:38.536Z,55.3
2022-12-04T16:52:40.467Z,64.8
2022-12-04T16:54:45.655Z,58.4
2022-12-04T16:56:47.610Z,55
2022-12-04T16:58:49.546Z,57.8
2022-12-04T17:00:51.505Z,66.6
2022-12-04T17:02:53.457Z,53.3
2022-12-04T17:04:57.847Z,55.3
2022-12-04T17:06:57.361Z,61.5
2022-12-04T17:09:02.555Z,78.8
2022-12-04T17:11:04.500Z,59.5
2022-12-04T17:13:06.445Z,52.7
2022-12-04T17:15:35.286Z,72
2022-12-04T17:17:37.263Z,68.4
2022-12-04T17:19:39.221Z,69.5
2022-12-04T17:21:44.390Z,65.7
2022-12-04T17:23:46.350Z,73.8
2022-12-04T17:25:48.311Z,78.9
2022-12-04T17:27:50.241Z,74
2022-12-04T17:29:52.193Z,78.2
2022-12-04T17:31:54.251Z,83.3
2022-12-04T17:33:56.110Z,68.6
2022-12-04T17:36:01.271Z,86.2
2022-12-04T17:38:06.111Z,94.5
2022-12-04T17:40:05.178Z,72.5
2022-12-04T17:42:07.101Z,87.8
2022-12-04T17:44:09.075Z,79.5
2022-12-04T17:46:11.053Z,91.5
2022-12-04T17:48:12.977Z,81.6
2022-12-04T17:50:18.154Z,81.7
2022-12-04T17:52:20.077Z,91.8
2022-12-04T17:54:22.048Z,94
2022-12-04T17:56:23.988Z,87.8
2022-12-04T17:58:25.902Z,82.5
2022-12-04T18:00:27.885Z,97.2
2022-12-04T18:02:29.907Z,93.2
2022-12-04T18:04:35.005Z,87.2
2022-12-04T18:06:36.927Z,87.2
2022-12-04T18:08:38.879Z,92.7
2022-12-04T18:09:41.458Z,91.5
2022-12-04T18:11:43.410Z,91.3
2022-12-04T18:13:45.346Z,85.8
2022-12-04T18:15:47.308Z,98.6
2022-12-04T18:17:52.479Z,89.2
2022-12-04T18:19:55.382Z,85.4
2022-12-04T18:21:56.352Z,90
2022-12-04T18:23:58.311Z,93.8
2022-12-04T18:26:00.239Z,108.3
2022-12-04T18:28:02.168Z,88.9
2022-12-04T18:30:04.093Z,92.9
2022-12-04T18:32:09.376Z,83.2
2022-12-04T18:34:11.218Z,78.7
2022-12-04T18:36:13.159Z,95.8
2022-12-04T18:38:15.107Z,83.5
2022-12-04T18:44:20.958Z,91.6
2022-12-04T18:48:28.044Z,103.7
2022-12-04T18:50:29.968Z,81.7
2022-12-04T18:52:31.915Z,75.9
2022-12-04T18:54:33.861Z,88.1
2022-12-04T18:56:35.805Z,98.1
2022-12-04T18:58:37.729Z,83.4
2022-12-04T19:00:43.003Z,94.8
2022-12-04T19:02:44.902Z,106.5
2022-12-04T19:04:46.820Z,111.9
2022-12-04T19:05:49.441Z,93.1
2022-12-04T19:07:51.389Z,107.8
2022-12-04T19:10:11.471Z,83.8
2022-12-04T19:11:55.223Z,99.5
2022-12-04T19:14:00.397Z,98.4
2022-12-04T19:16:02.326Z,96.7
2022-12-04T19:18:04.252Z,98
2022-12-04T19:20:06.192Z,108
2022-12-04T19:22:08.156Z,101.1
2022-12-04T19:24:10.111Z,112.1
2022-12-04T19:26:12.032Z,100.8
2022-12-04T19:28:17.212Z,97.8
2022-12-04T19:30:19.143Z,101
2022-12-04T19:32:21.152Z,112.5
2022-12-04T19:34:23.036Z,94.9
2022-12-04T19:36:24.966Z,100
2022-12-04T19:38:26.921Z,102.7
2022-12-04T19:40:28.878Z,101.9
2022-12-04T19:42:34.034Z,86.9
2022-12-04T19:48:41.374Z,96.9
2022-12-04T19:52:45.239Z,84.9
2022-12-04T20:00:56.360Z,94.1
2022-12-04T20:01:58.986Z,113.5
2022-12-04T20:04:00.808Z,98.7
2022-12-04T20:06:02.740Z,101.4
2022-12-04T20:10:09.878Z,105
2022-12-04T20:18:17.648Z,88.8
2022-12-04T20:20:19.608Z,98.5
2022-12-04T20:22:21.568Z,98.5
2022-12-04T20:24:26.755Z,114.5
2022-12-04T20:26:28.691Z,113
2022-12-04T20:28:30.618Z,103
2022-12-04T20:30:32.629Z,110.8
2022-12-04T20:32:35.406Z,98.5
2022-12-04T20:34:43.067Z,97.5
2022-12-04T20:36:39.298Z,106.5
2022-12-04T20:38:44.466Z,109.7
2022-12-04T20:40:46.416Z,81.5
2022-12-04T20:42:48.372Z,98.9
2022-12-04T20:44:50.316Z,85.3
2022-12-04T20:46:52.256Z,96.5
2022-12-04T20:50:56.160Z,97
2022-12-04T20:53:01.363Z,98.5
2022-12-04T20:57:05.221Z,90.7
2022-12-04T21:03:37.975Z,97.7
2022-12-04T21:05:43.994Z,91.8
2022-12-04T21:07:46.005Z,106.5
2022-12-04T21:09:47.922Z,95.5
2022-12-04T21:11:49.839Z,101.5
2022-12-04T21:13:51.785Z,98.6
2022-12-04T21:15:53.835Z,90.1
2022-12-04T21:17:55.714Z,78.4
2022-12-04T21:20:07.239Z,99.7
2022-12-04T21:22:02.858Z,98.2
2022-12-04T21:24:04.795Z,73.2
2022-12-04T21:26:06.748Z,92.8
2022-12-04T21:28:08.685Z,99
2022-12-04T21:30:10.636Z,96.8
2022-12-04T21:32:12.604Z,88.9
2022-12-04T21:34:17.776Z,94.2
2022-12-04T21:36:19.734Z,94.3
2022-12-04T21:38:21.695Z,85.1
2022-12-04T21:40:23.654Z,83.4
2022-12-04T21:42:25.606Z,85.6
2022-12-04T21:44:27.562Z,83.8
2022-12-04T21:46:29.648Z,94.7
2022-12-04T21:48:34.725Z,87.6
2022-12-04T21:50:36.700Z,90.8
2022-12-04T21:52:38.662Z,92.7
2022-12-04T21:53:42.695Z,84.5
2022-12-04T21:57:45.170Z,88.3
2022-12-04T21:59:47.135Z,83.1
2022-12-04T22:05:56.244Z,84.2
2022-12-04T22:07:58.213Z,82.7
2022-12-04T22:12:10.294Z,85
2022-12-04T22:28:21.104Z,73.8
2022-12-04T22:30:26.287Z,91.5
2022-12-04T22:32:28.269Z,78.5
2022-12-04T22:34:30.231Z,73.8
2022-12-04T22:38:42.497Z,79.6
2022-12-04T22:40:36.118Z,79.1
2022-12-04T22:42:38.072Z,89.4
2022-12-04T22:44:43.281Z,87.5
2022-12-04T22:48:47.220Z,82.4
2022-12-04T22:49:49.831Z,83.6
2022-12-04T22:55:55.729Z,80.4
2022-12-04T22:58:00.953Z,81.8
2022-12-04T23:00:02.917Z,87.7
2022-12-04T23:02:04.871Z,85.2
2022-12-04T23:04:06.855Z,77.9
2022-12-04T23:06:08.834Z,84.8
2022-12-04T23:08:10.834Z,76
2022-12-04T23:10:12.821Z,84.3
2022-12-04T23:12:17.971Z,83.1
2022-12-04T23:14:19.942Z,77.2
2022-12-04T23:20:25.838Z,85.7
2022-12-04T23:22:27.799Z,75.5
2022-12-04T23:24:29.785Z,75.6
2022-12-04T23:26:34.975Z,80.5
2022-12-04T23:28:36.955Z,80.6
2022-12-04T23:30:38.924Z,71.4
2022-12-04T23:32:40.922Z,80.8
2022-12-04T23:34:42.874Z,86.9
2022-12-04T23:36:44.817Z,75.1
2022-12-04T23:38:46.806Z,78.2
2022-12-04T23:40:51.999Z,82.3
2022-12-04T23:42:54.025Z,79.8
2022-12-04T23:44:55.984Z,71.1
2022-12-04T23:45:58.562Z,77.9
2022-12-04T23:48:00.719Z,82
2022-12-04T23:50:02.550Z,81.5
2022-12-04T23:52:04.524Z,87.6
2022-12-04T23:54:09.748Z,68.6
2022-12-04T23:56:11.723Z,76.3
2022-12-04T23:58:13.685Z,67.1
